Time;durP1;ratioP1;P1;durP2;ratioP2;P2;SDS_P1;SDS_P2;PMS_P1;PMS_P2;Temp;Humidity;BMP_temperature;BMP_pressure;BME280_temperature;BME280_humidity;BME280_pressure;Samples;Min_cycle;Max_cycle;Signal;HPM_P1;HPM_P2
2022/10/26 00:04:09;;;;;;;;;;;;;;;21.15;66.09;101151.19;7400519;19;1818;-36
2022/10/26 00:06:43;;;;;;;;;;;;;;;21.13;67.03;101146.91;7403578;19;1462;-36
2022/10/26 00:09:11;;;;;;;;;;;;;;;21.12;65.83;101145.25;7403955;19;1961;-36
2022/10/26 00:11:41;;;;;;;;;;;;;;;21.12;65.77;101147.94;7404650;19;1494;-36
2022/10/26 00:14:19;;;;;;;;;;;;;;;21.12;65.71;101154.16;7402641;19;999;-36
2022/10/26 00:16:47;;;;;;;;;;;;;;;21.14;67.17;101162.09;7400160;19;1910;-36
2022/10/26 00:19:19;;;;;;;;;;;;;;;21.12;66.81;101172.97;7403780;19;1917;-36
2022/10/26 00:21:54;;;;;;;;;;;;;;;21.10;66.70;101163.34;7402885;19;1396;-36
2022/10/26 00:24:24;;;;;;;;;;;;;;;21.14;66.69;101154.03;7401405;19;1647;-36
2022/10/26 00:26:52;;;;;;;;;;;;;;;21.11;67.20;101159.66;7403133;19;1583;-36
2022/10/26 00:29:24;;;;;;;;;;;;;;;21.08;67.54;101163.50;7403490;19;1854;-36
2022/10/26 00:31:59;;;;;;;;;;;;;;;21.08;67.10;101165.34;7398265;19;1618;-36
2022/10/26 00:34:28;;;;;;;;;;;;;;;21.09;67.00;101156.25;7401202;19;1263;-36
2022/10/26 00:37:01;;;;;;;;;;;;;;;21.09;66.27;101150.88;7399886;19;1801;-36
2022/10/26 00:39:33;;;;;;;;;;;;;;;21.06;66.67;101158.25;7402457;19;1540;-36
2022/10/26 00:42:02;;;;;;;;;;;;;;;21.06;66.18;101163.63;7402536;19;1323;-36
2022/10/26 00:44:47;;;;;;;;;;;;;;;21.06;66.57;101152.88;7403563;19;1035;-36
2022/10/26 00:47:21;;;;;;;;;;;;;;;21.06;66.73;101158.25;7401403;19;1555;-36
2022/10/26 00:52:35;;;;;;;;;;;;;;;21.06;66.90;101152.88;7399647;19;2278;-36
2022/10/26 00:55:05;;;;;;;;;;;;;;;21.06;66.61;101152.03;7400641;19;1669;-36
2022/10/26 00:57:37;;;;;;;;;;;;;;;21.05;65.81;101156.56;7401283;19;1817;-36
2022/10/26 01:00:09;;;;;;;;;;;;;;;21.08;67.09;101159.97;7402458;19;1320;-36
2022/10/26 01:02:39;;;;;;;;;;;;;;;21.28;67.15;101172.41;7400121;19;1961;-36
2022/10/26 01:05:15;;;;;;;;;;;;;;;21.95;65.10;101161.78;7401079;19;1802;-36
2022/10/26 01:07:55;;;;;;;;;;;;;;;21.94;65.19;101157.38;7401010;19;1815;-36
2022/10/26 01:10:26;;;;;;;;;;;;;;;21.76;65.86;101197.66;7399652;19;1882;-36
2022/10/26 01:12:58;;;;;;;;;;;;;;;22.00;65.05;101172.97;7400138;19;1548;-36
2022/10/26 01:15:41;;;;;;;;;;;;;;;22.12;64.78;101171.78;7400429;19;1338;-36
2022/10/26 01:18:12;;;;;;;;;;;;;;;21.78;65.52;101174.97;7401183;19;1634;-36
2022/10/26 01:21:02;;;;;;;;;;;;;;;21.61;66.27;101178.41;7400949;19;1909;-36
2022/10/26 01:24:01;;;;;;;;;;;;;;;22.12;64.89;101177.16;7397079;19;2007;-36
2022/10/26 01:26:44;;;;;;;;;;;;;;;22.23;64.31;101176.16;7402371;19;974;-36
2022/10/26 01:29:31;;;;;;;;;;;;;;;21.85;65.25;101177.97;7401871;19;1865;-36
2022/10/26 01:32:09;;;;;;;;;;;;;;;21.64;66.37;101178.97;7398270;19;1998;-36
2022/10/26 01:34:45;;;;;;;;;;;;;;;21.88;65.66;101164.19;7400103;19;1093;-37
2022/10/26 01:37:17;;;;;;;;;;;;;;;22.21;64.67;101167.38;7402487;19;1033;-36
2022/10/26 01:39:52;;;;;;;;;;;;;;;22.20;64.67;101181.84;7402057;19;1683;-36
2022/10/26 01:42:33;;;;;;;;;;;;;;;21.83;65.72;101175.41;7400322;19;1733;-36
2022/10/26 01:45:03;;;;;;;;;;;;;;;21.64;66.18;101172.72;7401548;19;2036;-37
2022/10/26 01:47:42;;;;;;;;;;;;;;;21.80;65.47;101186.44;7399509;19;1398;-36
2022/10/26 01:50:15;;;;;;;;;;;;;;;22.20;64.76;101185.41;7398927;19;1846;-36
2022/10/26 01:52:54;;;;;;;;;;;;;;;22.11;65.05;101170.09;7398739;19;1718;-36
2022/10/26 01:58:40;;;;;;;;;;;;;;;21.69;66.32;101196.56;7397428;19;1754;-36
2022/10/26 02:01:16;;;;;;;;;;;;;;;21.93;65.36;101171.84;7396431;19;1881;-70
2022/10/26 02:03:52;;;;;;;;;;;;;;;22.16;64.82;101175.03;7402129;19;1304;-69
2022/10/26 02:06:26;;;;;;;;;;;;;;;22.14;64.99;101191.34;7404016;19;1630;-70
2022/10/26 02:08:59;;;;;;;;;;;;;;;21.86;65.54;101193.09;7402195;19;1366;-70
2022/10/26 02:11:34;;;;;;;;;;;;;;;21.73;66.00;101182.66;7400581;19;1860;-70
2022/10/26 02:14:08;;;;;;;;;;;;;;;21.63;66.45;101200.66;7402811;19;1385;-70
2022/10/26 02:16:41;;;;;;;;;;;;;;;22.05;65.23;101182.31;7402016;19;1532;-70
2022/10/26 02:19:15;;;;;;;;;;;;;;;22.34;64.35;101191.31;7401555;19;889;-66
2022/10/26 02:21:45;;;;;;;;;;;;;;;22.10;64.85;101200.72;7401349;19;1702;-66
2022/10/26 02:24:15;;;;;;;;;;;;;;;21.84;65.46;101195.97;7403501;19;1576;-69
2022/10/26 02:26:46;;;;;;;;;;;;;;;21.71;65.85;101195.41;7404330;19;1474;-70
2022/10/26 02:29:17;;;;;;;;;;;;;;;21.61;66.34;101202.63;7399989;19;1316;-70
2022/10/26 02:31:48;;;;;;;;;;;;;;;22.02;65.32;101208.66;7401204;19;1485;-70
2022/10/26 02:34:21;;;;;;;;;;;;;;;22.26;64.37;101199.28;7402083;19;1348;-70
2022/10/26 02:36:51;;;;;;;;;;;;;;;22.07;65.37;101206.41;7402244;19;1574;-70
2022/10/26 02:39:19;;;;;;;;;;;;;;;21.82;65.80;101211.38;7400214;19;1336;-70
2022/10/26 02:41:49;;;;;;;;;;;;;;;21.69;66.16;101205.47;7402942;19;1527;-70
2022/10/26 02:44:22;;;;;;;;;;;;;;;21.64;66.02;101208.56;7402601;19;1374;-70
2022/10/26 02:46:51;;;;;;;;;;;;;;;22.02;65.04;101208.66;7400383;19;1620;-70
2022/10/26 02:49:22;;;;;;;;;;;;;;;22.28;64.40;101197.31;7401734;19;1504;-70
2022/10/26 02:51:52;;;;;;;;;;;;;;;22.08;65.29;101205.38;7399561;19;1841;-70
2022/10/26 02:54:25;;;;;;;;;;;;;;;21.85;65.53;101213.81;7404490;19;1532;-69
2022/10/26 02:56:55;;;;;;;;;;;;;;;21.69;66.03;101213.53;7409401;19;1587;-70
2022/10/26 02:59:26;;;;;;;;;;;;;;;21.61;66.40;101210.72;7409785;19;1299;-67
2022/10/26 03:01:55;;;;;;;;;;;;;;;22.02;64.93;101223.00;7404312;19;1481;-66
2022/10/26 03:04:31;;;;;;;;;;;;;;;22.29;64.20;101220.56;7408991;19;1378;-66
2022/10/26 03:07:00;;;;;;;;;;;;;;;22.08;65.09;101218.84;7405281;19;1516;-66
2022/10/26 03:09:29;;;;;;;;;;;;;;;21.84;65.46;101232.78;7408136;19;1548;-66
2022/10/26 03:11:57;;;;;;;;;;;;;;;21.67;66.14;101222.75;7407416;19;1845;-66
2022/10/26 03:14:25;;;;;;;;;;;;;;;21.71;66.24;101226.88;7407401;19;1673;-69
2022/10/26 03:16:54;;;;;;;;;;;;;;;22.10;64.88;101235.72;7406227;19;1521;-70
2022/10/26 03:19:22;;;;;;;;;;;;;;;22.27;64.29;101238.72;7408261;19;1329;-66
2022/10/26 03:21:53;;;;;;;;;;;;;;;22.05;65.11;101235.31;7406108;19;1425;-66
2022/10/26 03:24:21;;;;;;;;;;;;;;;21.83;65.78;101245.41;7408487;19;1540;-66
2022/10/26 03:26:49;;;;;;;;;;;;;;;21.74;66.14;101243.56;7408722;19;1583;-66
2022/10/26 03:29:18;;;;;;;;;;;;;;;21.63;66.35;101243.72;7409295;19;1378;-66
2022/10/26 03:31:46;;;;;;;;;;;;;;;22.10;64.98;101245.66;7402940;19;1830;-69
2022/10/26 03:34:15;;;;;;;;;;;;;;;22.27;64.42;101265.66;7404342;19;1583;-70
2022/10/26 03:36:43;;;;;;;;;;;;;;;22.07;64.99;101244.09;7407937;19;1515;-66
2022/10/26 03:39:14;;;;;;;;;;;;;;;21.81;65.59;101246.56;7407979;19;1545;-66
2022/10/26 03:41:43;;;;;;;;;;;;;;;21.73;65.83;101247.25;7407255;19;1370;-66
2022/10/26 03:44:11;;;;;;;;;;;;;;;21.64;65.94;101237.31;7408398;19;1296;-69
2022/10/26 03:46:39;;;;;;;;;;;;;;;22.03;64.92;101232.78;7404763;19;1729;-70
2022/10/26 03:49:07;;;;;;;;;;;;;;;22.29;64.32;101231.34;7407627;19;1554;-70
2022/10/26 03:51:36;;;;;;;;;;;;;;;22.09;64.98;101230.50;7406015;19;1842;-69
2022/10/26 03:54:04;;;;;;;;;;;;;;;21.88;65.43;101244.97;7406393;19;1406;-70
2022/10/26 03:56:35;;;;;;;;;;;;;;;21.67;66.09;101241.59;7407731;19;1268;-70
2022/10/26 03:59:03;;;;;;;;;;;;;;;21.75;65.71;101247.97;7408164;19;1650;-70
2022/10/26 04:01:32;;;;;;;;;;;;;;;22.14;65.08;101282.91;7402293;19;1619;-70
2022/10/26 04:04:00;;;;;;;;;;;;;;;22.22;64.24;101272.31;7406920;19;1496;-70
2022/10/26 04:06:28;;;;;;;;;;;;;;;21.96;65.26;101281.97;7407101;19;1272;-66
2022/10/26 04:09:01;;;;;;;;;;;;;;;21.78;65.73;101279.97;7407808;19;989;-66
2022/10/26 04:11:29;;;;;;;;;;;;;;;21.67;66.12;101269.34;7405926;19;1840;-66
2022/10/26 04:14:01;;;;;;;;;;;;;;;21.76;65.69;101281.09;7406297;19;1748;-66
2022/10/26 04:16:29;;;;;;;;;;;;;;;22.18;64.45;101270.03;7403410;19;1618;-66
2022/10/26 04:18:57;;;;;;;;;;;;;;;22.18;65.00;101281.66;7406511;19;1410;-66
2022/10/26 04:21:26;;;;;;;;;;;;;;;21.95;65.39;101291.88;7405844;19;1315;-66
2022/10/26 04:23:54;;;;;;;;;;;;;;;21.78;65.87;101289.88;7407103;19;929;-66
2022/10/26 04:26:22;;;;;;;;;;;;;;;21.68;66.06;101297.97;7404433;19;1715;-66
2022/10/26 04:28:50;;;;;;;;;;;;;;;21.92;65.13;101280.53;7406123;19;1674;-66
2022/10/26 04:31:21;;;;;;;;;;;;;;;22.14;64.56;101287.47;7401469;19;1818;-66
2022/10/26 04:33:50;;;;;;;;;;;;;;;22.18;64.73;101295.13;7406583;19;1524;-69
2022/10/26 04:36:18;;;;;;;;;;;;;;;21.91;65.43;101286.94;7406266;19;1275;-66
2022/10/26 04:38:46;;;;;;;;;;;;;;;21.88;65.78;101303.38;7405338;19;1694;-66
2022/10/26 04:41:14;;;;;;;;;;;;;;;21.75;65.62;101299.13;7405612;19;1718;-66
2022/10/26 04:43:43;;;;;;;;;;;;;;;21.93;65.71;101287.66;7405040;19;1905;-70
2022/10/26 04:46:12;;;;;;;;;;;;;;;22.26;65.05;101297.13;7406044;19;1291;-67
2022/10/26 04:48:43;;;;;;;;;;;;;;;22.05;65.98;101310.72;7409425;19;986;-68
2022/10/26 04:51:12;;;;;;;;;;;;;;;21.83;66.38;101293.03;7406555;19;1845;-63
2022/10/26 04:53:40;;;;;;;;;;;;;;;21.69;67.18;101301.53;7406275;19;1738;-64
2022/10/26 04:56:09;;;;;;;;;;;;;;;21.53;67.02;101302.91;7403797;19;1549;-64
2022/10/26 04:58:37;;;;;;;;;;;;;;;21.40;67.00;101311.19;7405748;19;1719;-64
2022/10/26 05:01:05;;;;;;;;;;;;;;;21.28;67.64;101312.31;7405989;19;1355;-69
2022/10/26 05:03:34;;;;;;;;;;;;;;;21.28;67.96;101309.59;7405675;19;1287;-70
2022/10/26 05:06:05;;;;;;;;;;;;;;;21.25;67.98;101315.28;7405216;19;1541;-69
2022/10/26 05:08:33;;;;;;;;;;;;;;;21.16;68.41;101316.09;7404508;19;1514;-69
2022/10/26 05:11:01;;;;;;;;;;;;;;;21.18;68.29;101324.88;7404699;19;1850;-70
2022/10/26 05:13:29;;;;;;;;;;;;;;;21.23;68.29;101304.66;7403796;19;1703;-73
2022/10/26 05:15:58;;;;;;;;;;;;;;;21.35;67.75;101309.94;7403982;19;1370;-68
2022/10/26 05:18:27;;;;;;;;;;;;;;;21.47;67.22;101313.34;7405218;19;1702;-70
2022/10/26 05:20:56;;;;;;;;;;;;;;;21.31;67.88;101327.31;7405001;19;1753;-71
2022/10/26 05:23:27;;;;;;;;;;;;;;;21.34;68.08;101321.66;7409384;19;1526;-70
2022/10/26 05:25:56;;;;;;;;;;;;;;;21.47;67.26;101340.28;7404373;19;1786;-68
2022/10/26 05:28:25;;;;;;;;;;;;;;;21.54;67.27;101344.13;7406045;19;1351;-68
2022/10/26 05:30:53;;;;;;;;;;;;;;;21.52;67.91;101346.09;7403659;19;1857;-69
2022/10/26 05:33:21;;;;;;;;;;;;;;;21.56;67.57;101336.75;7404262;19;1750;-69
2022/10/26 05:35:50;;;;;;;;;;;;;;;21.52;67.66;101346.09;7403776;19;1497;-76
2022/10/26 05:38:18;;;;;;;;;;;;;;;21.52;67.81;101352.31;7402286;19;1758;-71
2022/10/26 05:40:53;;;;;;;;;;;;;;;21.53;67.77;101347.81;7404509;19;1465;-74
2022/10/26 05:43:22;;;;;;;;;;;;;;;21.60;68.05;101344.41;7399006;19;1532;-65
2022/10/26 05:45:51;;;;;;;;;;;;;;;21.63;68.25;101351.38;7403583;19;1288;-63
2022/10/26 05:48:20;;;;;;;;;;;;;;;21.65;68.02;101357.47;7404133;19;1753;-65
2022/10/26 05:50:48;;;;;;;;;;;;;;;21.67;68.16;101363.56;7400060;19;1857;-64
2022/10/26 05:53:16;;;;;;;;;;;;;;;21.65;68.54;101373.63;7400748;19;1438;-64
2022/10/26 05:55:45;;;;;;;;;;;;;;;21.73;68.63;101381.00;7337807;19;12567;-64
2022/10/26 05:58:17;;;;;;;;;;;;;;;21.68;68.04;101362.56;7402778;19;1543;-64
2022/10/26 06:00:52;;;;;;;;;;;;;;;21.79;68.54;101370.53;7403310;19;1284;-69
2022/10/26 06:03:27;;;;;;;;;;;;;;;21.74;68.13;101378.16;7403752;19;1753;-63
2022/10/26 06:05:57;;;;;;;;;;;;;;;21.71;68.43;101366.84;7401186;19;1844;-64
2022/10/26 06:08:26;;;;;;;;;;;;;;;21.67;67.03;101377.03;7401551;19;1469;-63
2022/10/26 06:10:55;;;;;;;;;;;;;;;21.72;68.19;101380.13;7401051;19;1857;-64
2022/10/26 06:13:27;;;;;;;;;;;;;;;21.76;68.13;101391.47;7402249;19;1509;-62
2022/10/26 06:16:07;;;;;;;;;;;;;;;21.78;68.53;101395.72;7402974;19;1338;-63
2022/10/26 06:18:42;;;;;;;;;;;;;;;21.78;67.86;101394.88;7399985;19;1492;-63
2022/10/26 06:21:15;;;;;;;;;;;;;;;21.78;68.21;101401.13;7403656;19;1100;-64
2022/10/26 06:23:49;;;;;;;;;;;;;;;21.78;68.50;101409.19;7401511;19;1560;-63
2022/10/26 06:26:23;;;;;;;;;;;;;;;21.81;68.18;101408.94;7402052;19;1678;-61
2022/10/26 06:28:59;;;;;;;;;;;;;;;21.76;68.05;101404.94;7402608;19;1419;-64
2022/10/26 06:31:27;;;;;;;;;;;;;;;21.73;67.51;101399.84;7408445;19;1828;-63
2022/10/26 06:33:59;;;;;;;;;;;;;;;21.64;62.58;101410.44;7407588;19;1374;-63
2022/10/26 06:36:28;;;;;;;;;;;;;;;21.71;65.23;101420.69;7409447;19;1476;-60
2022/10/26 06:38:59;;;;;;;;;;;;;;;21.67;63.39;101432.72;7410564;19;1466;-63
2022/10/26 06:41:28;;;;;;;;;;;;;;;21.61;64.99;101410.72;7409902;19;1729;-67
2022/10/26 06:43:59;;;;;;;;;;;;;;;21.72;65.18;101415.13;7404782;19;1638;-64
2022/10/26 06:46:32;;;;;;;;;;;;;;;21.74;65.67;101421.22;7399876;19;1390;-64
2022/10/26 06:49:06;;;;;;;;;;;;;;;21.77;65.91;101415.56;7407702;19;1327;-63
2022/10/26 06:51:39;;;;;;;;;;;;;;;21.88;65.52;101429.91;7407514;19;1877;-65
2022/10/26 06:54:10;;;;;;;;;;;;;;;21.89;65.74;101420.84;7408821;19;1294;-62
2022/10/26 06:56:38;;;;;;;;;;;;;;;21.89;65.92;101423.56;7409482;19;1149;-64
2022/10/26 06:59:16;;;;;;;;;;;;;;;21.88;64.87;101424.53;7408354;19;1657;-65
2022/10/26 07:01:44;;;;;;;;;;;;;;;21.93;65.56;101420.44;7404513;19;1411;-63
2022/10/26 07:04:13;;;;;;;;;;;;;;;21.89;65.89;101428.94;7407173;19;1235;-62
2022/10/26 07:06:41;;;;;;;;;;;;;;;21.94;65.94;101423.97;7407963;19;1113;-68
2022/10/26 07:09:09;;;;;;;;;;;;;;;21.93;65.78;101433.91;7408038;19;1117;-65
2022/10/26 07:11:37;;;;;;;;;;;;;;;21.92;65.88;101426.78;7406160;19;1846;-64
2022/10/26 07:14:06;;;;;;;;;;;;;;;21.91;65.90;101418.88;7404439;19;2039;-62
2022/10/26 07:16:37;;;;;;;;;;;;;;;21.89;65.29;101426.25;7407731;19;1154;-65
2022/10/26 07:19:05;;;;;;;;;;;;;;;21.94;65.18;101426.66;7407116;19;1353;-64
2022/10/26 07:21:33;;;;;;;;;;;;;;;22.02;65.22;101421.44;7406592;19;1216;-62
2022/10/26 07:24:02;;;;;;;;;;;;;;;21.99;64.19;101436.03;7408305;19;1283;-64
2022/10/26 07:26:30;;;;;;;;;;;;;;;21.99;64.57;101443.25;7408585;19;1055;-66
2022/10/26 07:28:58;;;;;;;;;;;;;;;21.99;64.39;101429.81;7406805;19;1608;-65
2022/10/26 07:31:27;;;;;;;;;;;;;;;21.92;63.95;101434.88;7405456;19;1869;-65
2022/10/26 07:33:58;;;;;;;;;;;;;;;21.80;64.00;101430.59;7406672;19;1373;-66
2022/10/26 07:36:26;;;;;;;;;;;;;;;21.77;64.80;101420.97;7408408;19;1551;-62
2022/10/26 07:38:55;;;;;;;;;;;;;;;21.70;64.42;101435.94;7407090;19;999;-61
2022/10/26 07:41:23;;;;;;;;;;;;;;;21.74;63.75;101429.31;7406293;19;1581;-62
2022/10/26 07:43:51;;;;;;;;;;;;;;;21.71;63.71;101421.50;7407558;19;1745;-62
2022/10/26 07:46:20;;;;;;;;;;;;;;;21.72;62.77;101435.81;7404406;19;1663;-61
2022/10/26 07:48:48;;;;;;;;;;;;;;;21.67;63.19;101413.88;7406993;19;1634;-64
2022/10/26 07:51:19;;;;;;;;;;;;;;;21.63;62.51;101419.50;7407993;19;1855;-65
2022/10/26 07:53:47;;;;;;;;;;;;;;;21.68;61.74;101443.31;7408935;19;1672;-62
2022/10/26 07:56:15;;;;;;;;;;;;;;;21.61;60.44;101434.94;7407310;19;1671;-62
2022/10/26 07:58:44;;;;;;;;;;;;;;;21.54;60.33;101428.38;7406545;19;1757;-62
2022/10/26 08:01:13;;;;;;;;;;;;;;;21.57;60.85;101436.22;7406606;19;1572;-65
2022/10/26 08:03:42;;;;;;;;;;;;;;;21.60;61.91;101432.38;7408815;19;945;-62
2022/10/26 08:06:11;;;;;;;;;;;;;;;21.57;60.54;101429.97;7407869;19;983;-65
2022/10/26 08:08:41;;;;;;;;;;;;;;;21.54;59.49;101433.78;7406331;19;1631;-65
2022/10/26 08:11:10;;;;;;;;;;;;;;;21.52;59.45;101424.97;7403557;19;1671;-65
2022/10/26 08:13:38;;;;;;;;;;;;;;;21.55;60.53;101427.41;7406326;19;1838;-65
2022/10/26 08:16:07;;;;;;;;;;;;;;;21.61;60.81;101418.78;7406566;19;1429;-61
2022/10/26 08:18:35;;;;;;;;;;;;;;;21.68;60.70;101427.16;7407575;19;977;-65
2022/10/26 08:21:05;;;;;;;;;;;;;;;21.74;60.13;101426.59;7407019;19;1528;-62
2022/10/26 08:23:33;;;;;;;;;;;;;;;21.72;59.90;101417.81;7406325;19;1470;-65
2022/10/26 08:26:04;;;;;;;;;;;;;;;21.71;60.10;101426.91;7405684;19;1631;-62
2022/10/26 08:28:33;;;;;;;;;;;;;;;21.75;60.04;101427.47;7406955;19;1504;-61
2022/10/26 08:31:01;;;;;;;;;;;;;;;21.78;59.90;101427.19;7406475;19;1112;-64
2022/10/26 08:33:29;;;;;;;;;;;;;;;21.76;59.71;101426.47;7404738;19;1877;-62
2022/10/26 08:35:58;;;;;;;;;;;;;;;21.80;59.23;101420.66;7405969;19;1478;-62
2022/10/26 08:38:26;;;;;;;;;;;;;;;21.79;59.29;101431.59;7405687;19;1497;-62
2022/10/26 08:40:55;;;;;;;;;;;;;;;21.71;58.11;101426.91;7405905;19;1519;-65
2022/10/26 08:43:29;;;;;;;;;;;;;;;21.69;58.87;101418.13;7406453;19;1305;-64
2022/10/26 08:46:01;;;;;;;;;;;;;;;21.76;58.97;101435.41;7406254;19;959;-65
2022/10/26 08:48:32;;;;;;;;;;;;;;;21.80;59.01;101420.66;7405299;19;1291;-65
2022/10/26 08:51:02;;;;;;;;;;;;;;;21.85;58.97;101433.75;7404650;19;1475;-65
2022/10/26 08:53:34;;;;;;;;;;;;;;;21.76;58.54;101429.16;7402722;19;1846;-65
2022/10/26 08:56:05;;;;;;;;;;;;;;;21.77;58.91;101425.50;7405237;19;1439;-65
2022/10/26 08:58:40;;;;;;;;;;;;;;;21.74;59.25;101431.16;7405240;19;1496;-62
2022/10/26 09:01:09;;;;;;;;;;;;;;;21.75;59.24;101422.09;7405412;19;1520;-65
2022/10/26 09:03:38;;;;;;;;;;;;;;;21.71;58.13;101415.28;7405936;19;1022;-62
2022/10/26 09:06:12;;;;;;;;;;;;;;;21.67;57.85;101420.09;7404593;19;1443;-61
2022/10/26 09:08:43;;;;;;;;;;;;;;;21.69;57.15;101423.50;7405633;19;1599;-61
2022/10/26 09:11:17;;;;;;;;;;;;;;;21.70;58.84;101427.03;7404263;19;1595;-61
2022/10/26 09:13:53;;;;;;;;;;;;;;;21.70;57.86;101418.97;7402904;19;1849;-61
2022/10/26 09:16:27;;;;;;;;;;;;;;;21.75;59.02;101417.56;7401533;19;1679;-64
2022/10/26 09:19:01;;;;;;;;;;;;;;;21.81;58.70;101424.25;7405490;19;1610;-65
2022/10/26 09:21:34;;;;;;;;;;;;;;;21.78;59.07;101422.66;7404167;19;1610;-62
2022/10/26 09:24:07;;;;;;;;;;;;;;;21.78;58.66;101419.13;7405612;19;1022;-62
2022/10/26 09:26:40;;;;;;;;;;;;;;;21.83;58.85;101424.94;7405234;19;1062;-65
2022/10/26 09:29:14;;;;;;;;;;;;;;;21.83;58.38;101428.50;7403986;19;1569;-62
2022/10/26 09:31:43;;;;;;;;;;;;;;;21.76;58.46;101432.72;7401083;19;1850;-61
2022/10/26 09:34:18;;;;;;;;;;;;;;;21.80;58.47;101412.59;7404144;19;1417;-62
2022/10/26 09:36:46;;;;;;;;;;;;;;;21.86;58.29;101427.34;7403133;19;1606;-61
2022/10/26 09:39:17;;;;;;;;;;;;;;;21.87;57.80;101425.53;7403869;19;1460;-65
2022/10/26 09:41:48;;;;;;;;;;;;;;;21.87;57.63;101425.53;7404179;19;1596;-64
2022/10/26 09:44:24;;;;;;;;;;;;;;;21.91;57.68;101432.34;7402660;19;1318;-64
2022/10/26 09:46:57;;;;;;;;;;;;;;;21.77;58.46;101423.66;7402117;19;1508;-64
2022/10/26 09:49:30;;;;;;;;;;;;;;;21.64;55.76;101412.28;7403402;19;1343;-63
2022/10/26 09:51:58;;;;;;;;;;;;;;;21.62;56.00;101433.94;7399022;19;1858;-63
2022/10/26 09:54:26;;;;;;;;;;;;;;;21.53;54.73;101409.72;7398714;19;1279;-63
2022/10/26 09:56:58;;;;;;;;;;;;;;;21.59;53.74;101417.25;7401357;19;1663;-63
2022/10/26 09:59:29;;;;;;;;;;;;;;;21.57;56.24;101413.84;7404388;19;934;-63
2022/10/26 10:01:58;;;;;;;;;;;;;;;21.50;53.79;101410.81;7398163;19;1667;-63
2022/10/26 10:04:26;;;;;;;;;;;;;;;21.45;53.26;101400.47;7410592;19;1332;-64
2022/10/26 10:07:12;;;;;;;;;;;;;;;21.53;53.71;101415.09;7410882;19;1535;-64
2022/10/26 10:09:41;;;;;;;;;;;;;;;21.47;53.20;101404.84;7411335;19;1497;-62
2022/10/26 10:12:20;;;;;;;;;;;;;;;21.46;53.16;101412.06;7410882;19;1851;-62
2022/10/26 10:15:00;;;;;;;;;;;;;;;21.42;52.76;101392.63;7409997;19;1464;-62
2022/10/26 10:17:28;;;;;;;;;;;;;;;21.45;52.53;101400.47;7408799;19;1486;-62
2022/10/26 10:20:11;;;;;;;;;;;;;;;21.56;53.92;101395.97;7410078;19;1535;-62
2022/10/26 10:22:54;;;;;;;;;;;;;;;21.53;53.18;101388.19;7409845;19;1535;-62
2022/10/26 10:25:24;;;;;;;;;;;;;;;21.47;53.43;101389.56;7410327;19;1331;-62
2022/10/26 10:27:55;;;;;;;;;;;;;;;21.45;53.72;101405.00;7409757;19;1603;-62
2022/10/26 10:30:30;;;;;;;;;;;;;;;21.46;53.27;101395.94;7409902;19;1005;-62
2022/10/26 10:33:08;;;;;;;;;;;;;;;21.50;53.46;101391.13;7408531;19;1865;-62
2022/10/26 10:35:37;;;;;;;;;;;;;;;21.48;53.23;101398.50;7409811;19;1636;-62
2022/10/26 10:38:05;;;;;;;;;;;;;;;21.43;53.42;101390.84;7410433;19;1351;-62
2022/10/26 10:40:34;;;;;;;;;;;;;;;21.49;53.28;101400.19;7410011;19;1665;-62
2022/10/26 10:43:07;;;;;;;;;;;;;;;21.49;53.93;101384.03;7409483;19;1351;-62
2022/10/26 10:45:39;;;;;;;;;;;;;;;21.68;51.84;101378.72;7408915;19;1354;-63
2022/10/26 10:48:16;;;;;;;;;;;;;;;21.55;52.96;101384.34;7409580;19;1396;-63
2022/10/26 10:50:53;;;;;;;;;;;;;;;21.62;53.54;101398.94;7409232;19;1670;-63
2022/10/26 10:53:24;;;;;;;;;;;;;;;21.59;53.51;101379.56;7409093;19;1849;-63
2022/10/26 10:56:07;;;;;;;;;;;;;;;21.66;53.34;101380.69;7408836;19;1354;-63
2022/10/26 10:58:39;;;;;;;;;;;;;;;21.78;53.85;101384.97;7407171;19;1640;-63
2022/10/26 11:01:13;;;;;;;;;;;;;;;21.87;54.07;101387.84;7408061;19;1290;-64
2022/10/26 11:03:47;;;;;;;;;;;;;;;21.90;54.42;101376.78;7408478;19;1213;-63
2022/10/26 11:06:17;;;;;;;;;;;;;;;21.97;54.10;101378.75;7409408;19;1271;-63
2022/10/26 11:08:49;;;;;;;;;;;;;;;21.97;54.24;101378.75;7407428;19;1678;-65
2022/10/26 11:11:20;;;;;;;;;;;;;;;22.04;54.66;101379.91;7406821;19;1521;-65
2022/10/26 11:13:52;;;;;;;;;;;;;;;21.97;55.22;101370.69;7406389;19;1842;-63
2022/10/26 11:16:25;;;;;;;;;;;;;;;21.98;55.50;101372.38;7405518;19;1583;-63
2022/10/26 11:18:55;;;;;;;;;;;;;;;21.99;55.71;101370.56;7410312;19;1461;-65
2022/10/26 11:21:27;;;;;;;;;;;;;;;21.98;55.45;101380.44;7408069;19;1434;-63
2022/10/26 11:23:58;;;;;;;;;;;;;;;21.95;55.99;101379.91;7407152;19;1030;-63
2022/10/26 11:26:29;;;;;;;;;;;;;;;21.81;54.25;101379.31;7408277;19;1528;-63
2022/10/26 11:29:00;;;;;;;;;;;;;;;21.62;54.52;101369.34;7408603;19;1485;-63
2022/10/26 11:31:33;;;;;;;;;;;;;;;21.76;55.04;101378.88;7404778;19;1798;-64
2022/10/26 11:34:13;;;;;;;;;;;;;;;21.68;55.57;101367.09;7405853;19;1851;-63
2022/10/26 11:36:43;;;;;;;;;;;;;;;21.67;56.44;101360.03;7406723;19;1398;-63
2022/10/26 11:39:16;;;;;;;;;;;;;;;21.69;55.19;101358.91;7408168;19;1306;-74
2022/10/26 11:41:47;;;;;;;;;;;;;;;21.72;54.40;101369.38;7408619;19;1145;-68
2022/10/26 11:44:19;;;;;;;;;;;;;;;21.79;55.84;101365.13;7407887;19;1073;-68
2022/10/26 11:46:53;;;;;;;;;;;;;;;21.66;52.46;101364.53;7405158;19;1435;-66
2022/10/26 11:49:24;;;;;;;;;;;;;;;21.60;52.53;101375.84;7404928;19;1376;-65
2022/10/26 11:51:55;;;;;;;;;;;;;;;21.56;51.73;101356.44;7406867;19;1290;-67
2022/10/26 11:54:25;;;;;;;;;;;;;;;21.56;52.38;101355.59;7404165;19;1884;-64
2022/10/26 11:56:54;;;;;;;;;;;;;;;21.66;54.19;101361.84;7407811;19;1347;-64
2022/10/26 11:59:24;;;;;;;;;;;;;;;21.69;52.29;101371.50;7407361;19;1341;-66
2022/10/26 12:01:57;;;;;;;;;;;;;;;21.62;52.13;101355.03;7404043;19;1467;-69
2022/10/26 12:04:29;;;;;;;;;;;;;;;21.63;52.54;101356.75;7406579;19;1219;-69
2022/10/26 12:07:00;;;;;;;;;;;;;;;21.68;52.93;101345.56;7407284;19;1407;-64
2022/10/26 12:09:32;;;;;;;;;;;;;;;21.58;52.70;101364.38;7406691;19;1543;-63
2022/10/26 12:12:04;;;;;;;;;;;;;;;21.54;53.08;101361.13;7404796;19;1548;-63
2022/10/26 12:14:38;;;;;;;;;;;;;;;21.62;53.81;101374.72;7403794;19;1832;-63
2022/10/26 12:17:13;;;;;;;;;;;;;;;21.55;52.75;101375.44;7407011;19;1636;-63
2022/10/26 12:19:46;;;;;;;;;;;;;;;21.51;52.95;101361.41;7404399;19;1882;-64
2022/10/26 12:22:16;;;;;;;;;;;;;;;21.56;54.26;101358.28;7406131;19;1446;-63
2022/10/26 12:24:45;;;;;;;;;;;;;;;21.52;53.85;101346.09;7405616;19;1449;-63
2022/10/26 12:27:28;;;;;;;;;;;;;;;21.56;54.57;101352.91;7403037;19;1450;-64
2022/10/26 12:30:15;;;;;;;;;;;;;;;21.53;53.79;101356.72;7406462;19;1211;-67
2022/10/26 12:32:56;;;;;;;;;;;;;;;21.49;52.79;101360.69;7403004;19;1814;-66
2022/10/26 12:35:35;;;;;;;;;;;;;;;21.61;54.67;101356.88;7405447;19;1602;-63
2022/10/26 12:38:23;;;;;;;;;;;;;;;21.55;52.32;101365.53;7405422;19;1564;-64
2022/10/26 12:41:09;;;;;;;;;;;;;;;21.58;52.17;101362.53;7405646;19;1454;-64
2022/10/26 12:43:39;;;;;;;;;;;;;;;21.60;54.76;101359.72;7406138;19;1569;-64
2022/10/26 12:46:22;;;;;;;;;;;;;;;21.56;53.01;101369.06;7406162;19;1647;-65
2022/10/26 12:48:52;;;;;;;;;;;;;;;21.52;53.43;101356.88;7405349;19;1517;-64
2022/10/26 12:51:40;;;;;;;;;;;;;;;21.52;52.34;101362.25;7406945;19;1065;-66
2022/10/26 12:54:17;;;;;;;;;;;;;;;21.58;52.17;101367.06;7403547;19;1855;-66
2022/10/26 12:56:52;;;;;;;;;;;;;;;21.51;51.96;101363.25;7405179;19;1505;-67
2022/10/26 12:59:29;;;;;;;;;;;;;;;21.51;51.33;101364.09;7406341;19;1137;-67
2022/10/26 13:02:10;;;;;;;;;;;;;;;21.53;51.03;101366.66;7401992;19;1644;-68
2022/10/26 13:04:51;;;;;;;;;;;;;;;21.51;51.07;101360.56;7403432;19;1268;-65
2022/10/26 13:07:22;;;;;;;;;;;;;;;21.55;51.29;101359.28;7402296;19;1698;-66
2022/10/26 13:09:57;;;;;;;;;;;;;;;21.53;50.78;101355.88;7403914;19;1464;-66
2022/10/26 13:12:29;;;;;;;;;;;;;;;21.54;50.83;101360.28;7405320;19;1623;-67
2022/10/26 13:15:03;;;;;;;;;;;;;;;21.53;51.39;101363.97;7403843;19;1835;-68
2022/10/26 13:17:33;;;;;;;;;;;;;;;21.51;51.77;101365.94;7402927;19;1557;-68
2022/10/26 13:20:02;;;;;;;;;;;;;;;21.44;52.42;101352.16;7404918;19;1358;-68